Terminal Aerodrome Forecast
Issued by NWS

Home | Current Version | Previous Version | Text Only | Print | Product List | Glossary Off
Versions: 1 2 3 4 5 6 7 8 9 10 11 12 13 14 15 16 17 18

000
FTUS43 KTOP 140520
TAFMHK
TAF
KMHK 140520Z 1406/1506 16005KT 3SM -SN OVC030
      TEMPO 1406/1409 P6SM -SN OVC035
     FM141200 20007KT P6SM BKN040
     FM141900 24005KT P6SM FEW040
     FM150300 25004KT 3SM -SN BKN030=

USA.gov is the U.S. government's official web portal to all federal, state and local government web resources and services.